sensor_id;sensor_type;location;lat;lon;timestamp;pressure;altitude;pressure_sealevel;temperature;humidity
56042;BME280;48756;41.374;2.066;2023-05-24T00:01:40;100814.06;;;19.24;63.65
56042;BME280;48756;41.374;2.066;2023-05-24T00:04:06;100814.78;;;19.27;62.50
56042;BME280;48756;41.374;2.066;2023-05-24T00:06:32;100808.78;;;19.24;63.54
56042;BME280;48756;41.374;2.066;2023-05-24T00:08:59;100810.94;;;19.14;63.04
56042;BME280;48756;41.374;2.066;2023-05-24T00:11:25;100812.34;;;19.03;62.63
56042;BME280;48756;41.374;2.066;2023-05-24T00:13:51;100812.59;;;19.17;62.93
56042;BME280;48756;41.374;2.066;2023-05-24T00:16:17;100810.44;;;19.06;62.65
56042;BME280;48756;41.374;2.066;2023-05-24T00:18:42;100806.06;;;18.85;62.92
56042;BME280;48756;41.374;2.066;2023-05-24T00:21:11;100800.31;;;18.95;62.09
56042;BME280;48756;41.374;2.066;2023-05-24T00:23:37;100796.88;;;18.93;61.48
56042;BME280;48756;41.374;2.066;2023-05-24T00:26:02;100792.41;;;18.95;60.93
56042;BME280;48756;41.374;2.066;2023-05-24T00:28:28;100800.25;;;18.97;61.23
56042;BME280;48756;41.374;2.066;2023-05-24T00:30:53;100796.03;;;18.93;61.23
56042;BME280;48756;41.374;2.066;2023-05-24T00:33:19;100794.59;;;18.86;61.19
56042;BME280;48756;41.374;2.066;2023-05-24T00:35:47;100799.00;;;18.85;61.55
56042;BME280;48756;41.374;2.066;2023-05-24T00:38:12;100790.03;;;18.89;63.30
56042;BME280;48756;41.374;2.066;2023-05-24T00:40:38;100802.66;;;18.83;63.80
56042;BME280;48756;41.374;2.066;2023-05-24T00:43:03;100800.72;;;18.86;64.92
56042;BME280;48756;41.374;2.066;2023-05-24T00:45:29;100800.00;;;19.03;64.18
56042;BME280;48756;41.374;2.066;2023-05-24T00:47:54;100794.66;;;19.05;64.36
56042;BME280;48756;41.374;2.066;2023-05-24T00:50:20;100800.06;;;19.02;64.30
56042;BME280;48756;41.374;2.066;2023-05-24T00:52:46;100801.25;;;18.94;65.95
56042;BME280;48756;41.374;2.066;2023-05-24T00:55:11;100793.66;;;18.87;65.89
56042;BME280;48756;41.374;2.066;2023-05-24T00:57:37;100794.19;;;18.95;65.44
56042;BME280;48756;41.374;2.066;2023-05-24T01:00:03;100793.19;;;18.97;65.62
56042;BME280;48756;41.374;2.066;2023-05-24T01:02:29;100793.50;;;18.70;67.05
56042;BME280;48756;41.374;2.066;2023-05-24T01:04:54;100797.00;;;18.70;68.14
56042;BME280;48756;41.374;2.066;2023-05-24T01:07:25;100788.31;;;18.88;68.46
56042;BME280;48756;41.374;2.066;2023-05-24T01:12:40;100794.66;;;18.84;69.01
56042;BME280;48756;41.374;2.066;2023-05-24T01:20:14;100801.97;;;18.98;68.96
56042;BME280;48756;41.374;2.066;2023-05-24T01:27:42;100802.31;;;18.90;69.41
56042;BME280;48756;41.374;2.066;2023-05-24T01:30:07;100799.22;;;18.81;70.25
56042;BME280;48756;41.374;2.066;2023-05-24T01:32:33;100798.88;;;18.88;69.56
56042;BME280;48756;41.374;2.066;2023-05-24T01:34:58;100800.56;;;18.47;72.04
56042;BME280;48756;41.374;2.066;2023-05-24T01:37:24;100804.66;;;18.54;72.24
56042;BME280;48756;41.374;2.066;2023-05-24T01:39:50;100795.94;;;18.52;71.75
56042;BME280;48756;41.374;2.066;2023-05-24T01:42:26;100796.56;;;18.59;72.36
56042;BME280;48756;41.374;2.066;2023-05-24T01:47:39;100795.22;;;18.49;71.64
56042;BME280;48756;41.374;2.066;2023-05-24T01:50:13;100800.63;;;18.46;72.98
56042;BME280;48756;41.374;2.066;2023-05-24T01:52:41;100796.16;;;18.48;72.66
56042;BME280;48756;41.374;2.066;2023-05-24T01:55:08;100795.69;;;18.38;73.84
56042;BME280;48756;41.374;2.066;2023-05-24T01:57:34;100793.63;;;18.45;73.45
56042;BME280;48756;41.374;2.066;2023-05-24T02:00:02;100789.16;;;18.25;74.48
56042;BME280;48756;41.374;2.066;2023-05-24T02:02:29;100790.22;;;18.21;75.53
56042;BME280;48756;41.374;2.066;2023-05-24T02:04:55;100791.25;;;18.17;75.96
56042;BME280;48756;41.374;2.066;2023-05-24T02:07:21;100782.84;;;18.07;76.61
56042;BME280;48756;41.374;2.066;2023-05-24T02:09:46;100784.44;;;17.66;77.90
56042;BME280;48756;41.374;2.066;2023-05-24T02:12:12;100784.09;;;17.52;78.82
56042;BME280;48756;41.374;2.066;2023-05-24T02:14:38;100778.78;;;17.77;77.33
56042;BME280;48756;41.374;2.066;2023-05-24T02:17:03;100782.75;;;17.63;79.26
56042;BME280;48756;41.374;2.066;2023-05-24T02:19:29;100778.53;;;17.83;79.32
56042;BME280;48756;41.374;2.066;2023-05-24T02:21:55;100772.59;;;17.78;79.62
56042;BME280;48756;41.374;2.066;2023-05-24T02:24:20;100774.66;;;17.69;80.63
56042;BME280;48756;41.374;2.066;2023-05-24T02:26:46;100780.97;;;17.87;81.45
56042;BME280;48756;41.374;2.066;2023-05-24T02:29:11;100777.31;;;17.69;81.48
56042;BME280;48756;41.374;2.066;2023-05-24T02:31:37;100774.75;;;17.90;81.24
56042;BME280;48756;41.374;2.066;2023-05-24T02:34:03;100776.47;;;17.91;80.70
56042;BME280;48756;41.374;2.066;2023-05-24T02:36:28;100776.19;;;17.75;81.14
56042;BME280;48756;41.374;2.066;2023-05-24T02:38:53;100771.84;;;17.74;81.87
56042;BME280;48756;41.374;2.066;2023-05-24T02:41:19;100769.13;;;17.52;82.46
56042;BME280;48756;41.374;2.066;2023-05-24T02:43:44;100772.97;;;17.43;83.58
56042;BME280;48756;41.374;2.066;2023-05-24T02:46:10;100769.19;;;17.51;83.22
56042;BME280;48756;41.374;2.066;2023-05-24T02:48:35;100770.59;;;17.36;83.76
56042;BME280;48756;41.374;2.066;2023-05-24T02:51:01;100770.50;;;17.39;83.42
56042;BME280;48756;41.374;2.066;2023-05-24T02:53:29;100768.22;;;17.53;83.99
56042;BME280;48756;41.374;2.066;2023-05-24T02:55:55;100773.13;;;17.62;82.45
56042;BME280;48756;41.374;2.066;2023-05-24T02:58:21;100772.44;;;17.57;82.59
56042;BME280;48756;41.374;2.066;2023-05-24T03:00:47;100770.72;;;17.56;82.51
56042;BME280;48756;41.374;2.066;2023-05-24T03:03:13;100765.56;;;17.53;82.71
56042;BME280;48756;41.374;2.066;2023-05-24T03:05:38;100771.34;;;17.63;83.52
56042;BME280;48756;41.374;2.066;2023-05-24T03:08:03;100768.47;;;17.70;81.97
56042;BME280;48756;41.374;2.066;2023-05-24T03:10:30;100768.66;;;17.88;82.63
56042;BME280;48756;41.374;2.066;2023-05-24T03:12:56;100773.03;;;17.89;81.64
56042;BME280;48756;41.374;2.066;2023-05-24T03:15:22;100767.31;;;17.78;82.96
56042;BME280;48756;41.374;2.066;2023-05-24T03:17:48;100771.78;;;17.75;83.47
56042;BME280;48756;41.374;2.066;2023-05-24T03:20:14;100774.91;;;17.62;83.55
56042;BME280;48756;41.374;2.066;2023-05-24T03:22:40;100767.75;;;17.65;84.43
56042;BME280;48756;41.374;2.066;2023-05-24T03:25:06;100773.53;;;17.52;85.10
56042;BME280;48756;41.374;2.066;2023-05-24T03:27:32;100764.47;;;17.35;84.74
56042;BME280;48756;41.374;2.066;2023-05-24T03:29:58;100768.22;;;17.30;85.14
56042;BME280;48756;41.374;2.066;2023-05-24T03:32:23;100765.47;;;17.33;85.62
56042;BME280;48756;41.374;2.066;2023-05-24T03:34:49;100764.22;;;17.18;85.35
56042;BME280;48756;41.374;2.066;2023-05-24T03:37:15;100771.38;;;17.14;85.80
56042;BME280;48756;41.374;2.066;2023-05-24T03:39:40;100769.03;;;17.07;85.54
56042;BME280;48756;41.374;2.066;2023-05-24T03:42:05;100772.53;;;17.07;86.23
56042;BME280;48756;41.374;2.066;2023-05-24T03:44:31;100769.50;;;17.18;86.18
56042;BME280;48756;41.374;2.066;2023-05-24T03:46:56;100778.47;;;17.12;86.22
56042;BME280;48756;41.374;2.066;2023-05-24T03:49:22;100771.28;;;17.18;86.44
56042;BME280;48756;41.374;2.066;2023-05-24T03:51:47;100774.41;;;17.52;84.97
56042;BME280;48756;41.374;2.066;2023-05-24T03:54:13;100770.66;;;17.58;84.92
56042;BME280;48756;41.374;2.066;2023-05-24T03:56:38;100773.31;;;17.58;84.54
56042;BME280;48756;41.374;2.066;2023-05-24T03:59:04;100770.03;;;17.51;84.69
56042;BME280;48756;41.374;2.066;2023-05-24T04:01:29;100773.03;;;17.65;84.87
56042;BME280;48756;41.374;2.066;2023-05-24T04:03:56;100772.31;;;17.60;85.12
56042;BME280;48756;41.374;2.066;2023-05-24T04:06:21;100774.63;;;17.46;84.94
56042;BME280;48756;41.374;2.066;2023-05-24T04:08:57;100772.81;;;17.48;84.70
56042;BME280;48756;41.374;2.066;2023-05-24T04:11:23;100773.88;;;17.42;83.51
56042;BME280;48756;41.374;2.066;2023-05-24T04:13:52;100777.19;;;17.24;82.01
56042;BME280;48756;41.374;2.066;2023-05-24T04:16:18;100779.28;;;17.14;84.41
56042;BME280;48756;41.374;2.066;2023-05-24T04:18:43;100785.69;;;17.07;84.90
56042;BME280;48756;41.374;2.066;2023-05-24T04:21:09;100783.81;;;17.11;85.99
56042;BME280;48756;41.374;2.066;2023-05-24T04:23:35;100793.84;;;17.25;86.23
56042;BME280;48756;41.374;2.066;2023-05-24T04:26:00;100793.38;;;17.13;87.03
56042;BME280;48756;41.374;2.066;2023-05-24T04:28:25;100789.22;;;17.31;86.51
56042;BME280;48756;41.374;2.066;2023-05-24T04:30:51;100784.47;;;17.41;86.45
56042;BME280;48756;41.374;2.066;2023-05-24T04:33:17;100789.97;;;17.35;87.55
56042;BME280;48756;41.374;2.066;2023-05-24T04:35:43;100781.56;;;17.49;85.63
56042;BME280;48756;41.374;2.066;2023-05-24T04:38:09;100786.41;;;17.59;85.74
56042;BME280;48756;41.374;2.066;2023-05-24T04:40:36;100780.16;;;17.62;85.63
56042;BME280;48756;41.374;2.066;2023-05-24T04:43:02;100777.91;;;17.53;86.31
56042;BME280;48756;41.374;2.066;2023-05-24T04:45:28;100781.69;;;17.45;86.83
56042;BME280;48756;41.374;2.066;2023-05-24T04:47:55;100786.59;;;17.55;86.22
56042;BME280;48756;41.374;2.066;2023-05-24T04:50:20;100785.38;;;17.40;85.33
56042;BME280;48756;41.374;2.066;2023-05-24T04:52:46;100788.59;;;17.25;86.32
56042;BME280;48756;41.374;2.066;2023-05-24T04:55:11;100794.22;;;17.14;86.48
56042;BME280;48756;41.374;2.066;2023-05-24T04:57:36;100778.22;;;17.20;87.04
56042;BME280;48756;41.374;2.066;2023-05-24T05:00:02;100778.19;;;17.45;85.25
56042;BME280;48756;41.374;2.066;2023-05-24T05:02:28;100771.19;;;17.44;85.80
56042;BME280;48756;41.374;2.066;2023-05-24T05:04:54;100777.47;;;17.40;85.94
56042;BME280;48756;41.374;2.066;2023-05-24T05:07:19;100771.19;;;17.44;84.63
56042;BME280;48756;41.374;2.066;2023-05-24T05:09:45;100770.22;;;17.47;85.75
56042;BME280;48756;41.374;2.066;2023-05-24T05:12:11;100764.31;;;17.40;85.67
56042;BME280;48756;41.374;2.066;2023-05-24T05:14:36;100765.81;;;17.47;84.38
56042;BME280;48756;41.374;2.066;2023-05-24T05:17:02;100761.56;;;17.68;84.38
56042;BME280;48756;41.374;2.066;2023-05-24T05:19:27;100765.13;;;17.65;83.93
56042;BME280;48756;41.374;2.066;2023-05-24T05:21:53;100773.88;;;17.67;83.77
56042;BME280;48756;41.374;2.066;2023-05-24T05:24:18;100765.03;;;17.68;83.22
56042;BME280;48756;41.374;2.066;2023-05-24T05:26:44;100777.34;;;17.68;83.18
56042;BME280;48756;41.374;2.066;2023-05-24T05:29:09;100767.97;;;17.83;82.65
56042;BME280;48756;41.374;2.066;2023-05-24T05:31:35;100770.19;;;17.71;82.03
56042;BME280;48756;41.374;2.066;2023-05-24T05:34:01;100774.44;;;17.97;80.71
56042;BME280;48756;41.374;2.066;2023-05-24T05:36:26;100772.28;;;18.07;79.46
56042;BME280;48756;41.374;2.066;2023-05-24T05:38:51;100778.06;;;18.17;78.92
56042;BME280;48756;41.374;2.066;2023-05-24T05:41:18;100766.34;;;18.24;79.26
56042;BME280;48756;41.374;2.066;2023-05-24T05:43:44;100773.34;;;18.25;78.92
56042;BME280;48756;41.374;2.066;2023-05-24T05:46:09;100776.44;;;18.14;78.51
56042;BME280;48756;41.374;2.066;2023-05-24T05:48:35;100786.97;;;18.14;78.52
56042;BME280;48756;41.374;2.066;2023-05-24T05:51:00;100784.09;;;18.20;77.79
56042;BME280;48756;41.374;2.066;2023-05-24T05:53:26;100780.94;;;18.32;77.29
56042;BME280;48756;41.374;2.066;2023-05-24T05:55:51;100771.28;;;18.11;78.79
56042;BME280;48756;41.374;2.066;2023-05-24T05:58:17;100785.81;;;18.21;78.42
56042;BME280;48756;41.374;2.066;2023-05-24T06:00:42;100781.91;;;18.30;77.78
56042;BME280;48756;41.374;2.066;2023-05-24T06:03:08;100787.31;;;18.27;77.23
56042;BME280;48756;41.374;2.066;2023-05-24T06:05:33;100786.06;;;18.15;77.51
56042;BME280;48756;41.374;2.066;2023-05-24T06:07:58;100781.13;;;18.28;76.39
56042;BME280;48756;41.374;2.066;2023-05-24T06:10:24;100777.16;;;18.40;75.79
56042;BME280;48756;41.374;2.066;2023-05-24T06:12:50;100779.72;;;18.63;74.29
56042;BME280;48756;41.374;2.066;2023-05-24T06:15:15;100783.00;;;18.68;73.34
56042;BME280;48756;41.374;2.066;2023-05-24T06:17:41;100783.97;;;18.87;71.51
56042;BME280;48756;41.374;2.066;2023-05-24T06:20:08;100787.03;;;18.97;71.67
56042;BME280;48756;41.374;2.066;2023-05-24T06:22:35;100785.75;;;18.87;70.89
56042;BME280;48756;41.374;2.066;2023-05-24T06:25:02;100786.66;;;18.86;71.52
56042;BME280;48756;41.374;2.066;2023-05-24T06:27:27;100783.59;;;19.15;70.00
56042;BME280;48756;41.374;2.066;2023-05-24T06:29:53;100777.75;;;19.48;68.91
56042;BME280;48756;41.374;2.066;2023-05-24T06:32:18;100782.22;;;19.46;68.79
56042;BME280;48756;41.374;2.066;2023-05-24T06:34:43;100779.50;;;19.68;67.16
56042;BME280;48756;41.374;2.066;2023-05-24T06:37:09;100785.53;;;19.51;68.27
56042;BME280;48756;41.374;2.066;2023-05-24T06:39:39;100780.00;;;19.57;68.81
56042;BME280;48756;41.374;2.066;2023-05-24T06:42:04;100775.13;;;19.48;67.89
56042;BME280;48756;41.374;2.066;2023-05-24T06:44:30;100774.66;;;19.96;66.29
56042;BME280;48756;41.374;2.066;2023-05-24T06:46:58;100780.16;;;19.73;68.54
56042;BME280;48756;41.374;2.066;2023-05-24T06:49:24;100776.34;;;19.97;67.68
56042;BME280;48756;41.374;2.066;2023-05-24T06:51:49;100774.50;;;19.99;68.19
56042;BME280;48756;41.374;2.066;2023-05-24T06:54:14;100775.25;;;20.20;66.70
56042;BME280;48756;41.374;2.066;2023-05-24T06:56:40;100774.56;;;20.16;66.56
56042;BME280;48756;41.374;2.066;2023-05-24T06:59:05;100774.56;;;20.34;65.41
56042;BME280;48756;41.374;2.066;2023-05-24T07:01:32;100780.47;;;20.58;64.15
56042;BME280;48756;41.374;2.066;2023-05-24T07:03:58;100772.69;;;20.72;64.26
56042;BME280;48756;41.374;2.066;2023-05-24T07:06:23;100774.88;;;20.64;63.54
56042;BME280;48756;41.374;2.066;2023-05-24T07:08:49;100780.38;;;20.94;63.22
56042;BME280;48756;41.374;2.066;2023-05-24T07:11:14;100772.69;;;20.89;62.70
56042;BME280;48756;41.374;2.066;2023-05-24T07:13:40;100777.28;;;20.86;62.11
56042;BME280;48756;41.374;2.066;2023-05-24T07:16:07;100770.91;;;21.23;61.63
56042;BME280;48756;41.374;2.066;2023-05-24T07:18:33;100773.84;;;21.51;60.20
56042;BME280;48756;41.374;2.066;2023-05-24T07:20:58;100773.44;;;21.26;60.75
56042;BME280;48756;41.374;2.066;2023-05-24T07:23:25;100777.03;;;21.58;59.09
56042;BME280;48756;41.374;2.066;2023-05-24T07:25:50;100789.09;;;21.13;60.29
56042;BME280;48756;41.374;2.066;2023-05-24T07:28:16;100775.22;;;21.25;60.34
56042;BME280;48756;41.374;2.066;2023-05-24T07:30:44;100770.91;;;21.23;59.30
56042;BME280;48756;41.374;2.066;2023-05-24T07:33:09;100770.56;;;21.30;59.20
56042;BME280;48756;41.374;2.066;2023-05-24T07:35:35;100777.41;;;21.34;58.57
56042;BME280;48756;41.374;2.066;2023-05-24T07:38:01;100779.16;;;21.51;57.36
56042;BME280;48756;41.374;2.066;2023-05-24T07:40:26;100778.72;;;21.59;58.14
56042;BME280;48756;41.374;2.066;2023-05-24T07:42:51;100774.66;;;22.00;55.87
56042;BME280;48756;41.374;2.066;2023-05-24T07:45:17;100782.88;;;21.96;55.83
56042;BME280;48756;41.374;2.066;2023-05-24T07:47:42;100779.19;;;21.83;56.09
56042;BME280;48756;41.374;2.066;2023-05-24T07:50:08;100784.59;;;22.13;55.24
56042;BME280;48756;41.374;2.066;2023-05-24T07:52:33;100776.78;;;22.41;54.23
56042;BME280;48756;41.374;2.066;2023-05-24T07:54:59;100786.47;;;22.26;54.55
56042;BME280;48756;41.374;2.066;2023-05-24T07:57:24;100777.84;;;22.53;53.84
56042;BME280;48756;41.374;2.066;2023-05-24T07:59:50;100779.81;;;22.79;53.06
56042;BME280;48756;41.374;2.066;2023-05-24T08:02:15;100780.66;;;22.66;53.13
56042;BME280;48756;41.374;2.066;2023-05-24T08:04:41;100780.19;;;22.73;52.98
56042;BME280;48756;41.374;2.066;2023-05-24T08:07:07;100782.84;;;22.73;52.64
56042;BME280;48756;41.374;2.066;2023-05-24T08:09:32;100779.91;;;22.64;52.76
56042;BME280;48756;41.374;2.066;2023-05-24T08:12:04;100785.34;;;23.20;51.42
56042;BME280;48756;41.374;2.066;2023-05-24T08:14:29;100783.88;;;23.01;51.60
56042;BME280;48756;41.374;2.066;2023-05-24T08:16:55;100785.22;;;23.08;51.33
56042;BME280;48756;41.374;2.066;2023-05-24T08:19:20;100771.97;;;23.65;50.21
56042;BME280;48756;41.374;2.066;2023-05-24T08:21:45;100774.78;;;23.47;49.89
56042;BME280;48756;41.374;2.066;2023-05-24T08:24:11;100776.22;;;23.53;50.18
56042;BME280;48756;41.374;2.066;2023-05-24T08:26:36;100770.63;;;23.72;49.25
56042;BME280;48756;41.374;2.066;2023-05-24T08:29:02;100765.00;;;23.48;50.41
56042;BME280;48756;41.374;2.066;2023-05-24T08:31:28;100765.03;;;23.76;49.09
56042;BME280;48756;41.374;2.066;2023-05-24T08:33:53;100757.31;;;23.72;49.12
56042;BME280;48756;41.374;2.066;2023-05-24T08:36:20;100766.69;;;24.19;48.93
56042;BME280;48756;41.374;2.066;2023-05-24T08:38:45;100763.44;;;24.28;48.36
56042;BME280;48756;41.374;2.066;2023-05-24T08:41:10;100760.25;;;24.50;47.68
56042;BME280;48756;41.374;2.066;2023-05-24T08:43:40;100766.03;;;24.29;48.06
56042;BME280;48756;41.374;2.066;2023-05-24T08:46:06;100762.19;;;24.60;46.49
56042;BME280;48756;41.374;2.066;2023-05-24T08:48:31;100750.31;;;24.91;46.07
56042;BME280;48756;41.374;2.066;2023-05-24T08:50:58;100757.00;;;24.84;46.20
56042;BME280;48756;41.374;2.066;2023-05-24T08:53:24;100754.06;;;25.14;45.89
56042;BME280;48756;41.374;2.066;2023-05-24T08:55:50;100742.06;;;25.58;45.00
56042;BME280;48756;41.374;2.066;2023-05-24T08:58:19;100738.88;;;25.27;45.28
56042;BME280;48756;41.374;2.066;2023-05-24T09:00:45;100745.31;;;25.25;45.66
56042;BME280;48756;41.374;2.066;2023-05-24T09:03:11;100737.75;;;25.81;44.79
56042;BME280;48756;41.374;2.066;2023-05-24T09:05:36;100744.25;;;26.13;43.57
56042;BME280;48756;41.374;2.066;2023-05-24T09:08:04;100744.47;;;25.86;44.29
56042;BME280;48756;41.374;2.066;2023-05-24T09:10:31;100745.84;;;26.16;43.40
56042;BME280;48756;41.374;2.066;2023-05-24T09:12:57;100745.81;;;27.21;41.94
56042;BME280;48756;41.374;2.066;2023-05-24T09:15:23;100743.50;;;27.50;40.39
56042;BME280;48756;41.374;2.066;2023-05-24T09:17:48;100745.69;;;27.00;41.72
56042;BME280;48756;41.374;2.066;2023-05-24T09:20:13;100740.22;;;27.35;40.48
56042;BME280;48756;41.374;2.066;2023-05-24T09:22:42;100739.06;;;26.82;41.35
56042;BME280;48756;41.374;2.066;2023-05-24T09:25:11;100734.88;;;26.67;42.41
56042;BME280;48756;41.374;2.066;2023-05-24T09:27:37;100730.59;;;27.55;40.87
56042;BME280;48756;41.374;2.066;2023-05-24T09:30:03;100742.28;;;27.32;41.67
56042;BME280;48756;41.374;2.066;2023-05-24T09:32:32;100738.22;;;27.93;40.40
56042;BME280;48756;41.374;2.066;2023-05-24T09:34:57;100745.44;;;28.57;39.01
56042;BME280;48756;41.374;2.066;2023-05-24T09:37:23;100742.88;;;27.91;40.20
56042;BME280;48756;41.374;2.066;2023-05-24T09:39:51;100738.22;;;27.93;38.90
56042;BME280;48756;41.374;2.066;2023-05-24T09:42:17;100743.50;;;28.27;39.14
56042;BME280;48756;41.374;2.066;2023-05-24T09:44:46;100744.53;;;28.67;38.46
56042;BME280;48756;41.374;2.066;2023-05-24T09:47:11;100732.66;;;28.28;38.12
56042;BME280;48756;41.374;2.066;2023-05-24T09:49:37;100742.81;;;28.66;38.06
56042;BME280;48756;41.374;2.066;2023-05-24T09:52:03;100736.25;;;28.91;37.30
56042;BME280;48756;41.374;2.066;2023-05-24T09:54:30;100747.31;;;28.98;37.64
56042;BME280;48756;41.374;2.066;2023-05-24T09:56:56;100745.69;;;28.33;38.38
56042;BME280;48756;41.374;2.066;2023-05-24T09:59:24;100748.16;;;28.99;36.89
56042;BME280;48756;41.374;2.066;2023-05-24T10:01:49;100751.81;;;28.98;37.05
56042;BME280;48756;41.374;2.066;2023-05-24T10:04:17;100751.88;;;28.86;36.74
56042;BME280;48756;41.374;2.066;2023-05-24T10:06:43;100743.03;;;28.75;36.81
56042;BME280;48756;41.374;2.066;2023-05-24T10:09:12;100749.03;;;28.67;37.45
56042;BME280;48756;41.374;2.066;2023-05-24T10:11:38;100742.94;;;29.27;36.38
56042;BME280;48756;41.374;2.066;2023-05-24T10:14:05;100748.88;;;29.01;36.72
56042;BME280;48756;41.374;2.066;2023-05-24T10:16:33;100745.88;;;29.24;35.87
56042;BME280;48756;41.374;2.066;2023-05-24T10:19:00;100747.63;;;29.35;36.11
56042;BME280;48756;41.374;2.066;2023-05-24T10:21:25;100745.31;;;29.51;36.20
56042;BME280;48756;41.374;2.066;2023-05-24T10:23:54;100752.91;;;28.95;36.49
56042;BME280;48756;41.374;2.066;2023-05-24T10:26:22;100748.91;;;29.41;36.36
56042;BME280;48756;41.374;2.066;2023-05-24T10:28:50;100746.50;;;29.07;36.92
56042;BME280;48756;41.374;2.066;2023-05-24T10:31:23;100737.59;;;29.68;35.92
56042;BME280;48756;41.374;2.066;2023-05-24T10:33:50;100747.63;;;30.35;35.36
56042;BME280;48756;41.374;2.066;2023-05-24T10:36:16;100739.13;;;30.39;35.00
56042;BME280;48756;41.374;2.066;2023-05-24T10:38:44;100746.63;;;30.16;35.54
56042;BME280;48756;41.374;2.066;2023-05-24T10:41:10;100736.34;;;29.81;36.31
56042;BME280;48756;41.374;2.066;2023-05-24T10:43:37;100737.69;;;30.06;35.23
56042;BME280;48756;41.374;2.066;2023-05-24T10:46:02;100733.59;;;30.41;34.66
56042;BME280;48756;41.374;2.066;2023-05-24T10:50:54;100736.72;;;30.36;35.23
56042;BME280;48756;41.374;2.066;2023-05-24T10:53:22;100728.09;;;30.13;35.23
56042;BME280;48756;41.374;2.066;2023-05-24T10:55:50;100735.41;;;30.02;34.77
56042;BME280;48756;41.374;2.066;2023-05-24T10:58:17;100730.91;;;29.52;36.36
56042;BME280;48756;41.374;2.066;2023-05-24T11:00:43;100735.50;;;29.81;35.02
56042;BME280;48756;41.374;2.066;2023-05-24T11:03:09;100736.78;;;29.86;35.11
56042;BME280;48756;41.374;2.066;2023-05-24T11:08:10;100735.38;;;29.42;36.07
56042;BME280;48756;41.374;2.066;2023-05-24T11:10:35;100734.06;;;29.06;36.28
56042;BME280;48756;41.374;2.066;2023-05-24T11:13:01;100744.50;;;29.00;36.59
56042;BME280;48756;41.374;2.066;2023-05-24T11:15:27;100737.44;;;29.29;36.47
56042;BME280;48756;41.374;2.066;2023-05-24T11:20:33;100746.56;;;28.96;36.74
56042;BME280;48756;41.374;2.066;2023-05-24T11:22:58;100746.34;;;29.30;36.47
56042;BME280;48756;41.374;2.066;2023-05-24T11:25:25;100739.09;;;29.51;35.85
56042;BME280;48756;41.374;2.066;2023-05-24T11:27:51;100732.41;;;29.15;37.06
56042;BME280;48756;41.374;2.066;2023-05-24T11:30:16;100739.13;;;29.00;36.82
56042;BME280;48756;41.374;2.066;2023-05-24T11:32:46;100747.09;;;29.72;35.89
56042;BME280;48756;41.374;2.066;2023-05-24T11:35:11;100739.75;;;29.43;36.83
56042;BME280;48756;41.374;2.066;2023-05-24T11:37:37;100743.91;;;29.57;36.21
56042;BME280;48756;41.374;2.066;2023-05-24T11:40:02;100751.50;;;28.91;36.63
56042;BME280;48756;41.374;2.066;2023-05-24T11:42:29;100755.84;;;29.13;36.07
56042;BME280;48756;41.374;2.066;2023-05-24T11:44:55;100758.22;;;29.06;35.96
56042;BME280;48756;41.374;2.066;2023-05-24T11:47:20;100752.56;;;28.03;37.85
56042;BME280;48756;41.374;2.066;2023-05-24T11:49:50;100752.78;;;28.76;36.78
56042;BME280;48756;41.374;2.066;2023-05-24T11:52:16;100742.38;;;28.61;36.63
56042;BME280;48756;41.374;2.066;2023-05-24T11:54:41;100736.50;;;28.88;36.63
56042;BME280;48756;41.374;2.066;2023-05-24T11:57:10;100730.81;;;29.33;36.39
56042;BME280;48756;41.374;2.066;2023-05-24T11:59:36;100742.53;;;30.12;35.20
56042;BME280;48756;41.374;2.066;2023-05-24T12:02:03;100747.47;;;29.27;35.98
56042;BME280;48756;41.374;2.066;2023-05-24T12:04:32;100742.53;;;30.41;35.32
56042;BME280;48756;41.374;2.066;2023-05-24T12:06:58;100749.63;;;29.12;36.27
56042;BME280;48756;41.374;2.066;2023-05-24T12:09:23;100760.06;;;29.06;36.91
56042;BME280;48756;41.374;2.066;2023-05-24T12:11:49;100748.72;;;29.53;36.41
56042;BME280;48756;41.374;2.066;2023-05-24T12:14:16;100741.09;;;30.08;37.02
56042;BME280;48756;41.374;2.066;2023-05-24T12:16:42;100738.38;;;29.49;36.59
56042;BME280;48756;41.374;2.066;2023-05-24T12:19:07;100728.75;;;29.96;36.17
56042;BME280;48756;41.374;2.066;2023-05-24T12:21:39;100727.78;;;30.55;35.61
56042;BME280;48756;41.374;2.066;2023-05-24T12:24:08;100716.75;;;30.48;35.80
56042;BME280;48756;41.374;2.066;2023-05-24T12:26:41;100723.19;;;29.38;36.50
56042;BME280;48756;41.374;2.066;2023-05-24T12:29:08;100726.53;;;29.51;36.27
56042;BME280;48756;41.374;2.066;2023-05-24T12:31:34;100722.63;;;29.35;36.33
56042;BME280;48756;41.374;2.066;2023-05-24T12:33:59;100719.88;;;29.46;35.93
56042;BME280;48756;41.374;2.066;2023-05-24T12:36:26;100724.31;;;28.63;37.31
56042;BME280;48756;41.374;2.066;2023-05-24T12:38:54;100720.81;;;29.14;37.27
56042;BME280;48756;41.374;2.066;2023-05-24T12:41:21;100731.22;;;28.98;37.32
56042;BME280;48756;41.374;2.066;2023-05-24T12:43:46;100733.31;;;29.25;37.31
56042;BME280;48756;41.374;2.066;2023-05-24T12:46:12;100732.22;;;29.68;36.33
56042;BME280;48756;41.374;2.066;2023-05-24T12:48:37;100731.50;;;28.84;37.48
56042;BME280;48756;41.374;2.066;2023-05-24T12:51:03;100729.94;;;29.33;37.49
56042;BME280;48756;41.374;2.066;2023-05-24T12:53:28;100729.41;;;29.69;36.80
56042;BME280;48756;41.374;2.066;2023-05-24T12:55:54;100732.63;;;30.23;36.70
56042;BME280;48756;41.374;2.066;2023-05-24T12:58:20;100728.66;;;30.36;35.80
56042;BME280;48756;41.374;2.066;2023-05-24T13:00:45;100727.56;;;29.79;36.19
56042;BME280;48756;41.374;2.066;2023-05-24T13:03:14;100723.78;;;30.01;36.32
56042;BME280;48756;41.374;2.066;2023-05-24T13:05:39;100735.81;;;29.87;37.00
56042;BME280;48756;41.374;2.066;2023-05-24T13:08:05;100745.66;;;29.37;37.18